TimeEDT,TemperatureF,Dew PointF,Humidity,Sea Level PressureIn,VisibilityMPH,Wind Direction,Wind SpeedMPH,Gust SpeedMPH,PrecipitationIn,Events,Conditions,WindDirDegrees,DateUTC
12:11 AM,44.6,37.4,76,30.11,10.0,WSW,5.8,-,N/A,,Clear,240,2011-10-25 04:11:00
12:31 AM,44.6,37.4,76,30.11,10.0,WSW,4.6,-,N/A,,Clear,240,2011-10-25 04:31:00
12:51 AM,44.6,37.4,76,30.12,10.0,WSW,4.6,-,N/A,,Clear,240,2011-10-25 04:51:00
1:11 AM,44.6,37.4,76,30.12,10.0,WSW,3.5,-,N/A,,Clear,250,2011-10-25 05:11:00
1:31 AM,44.6,37.4,76,30.12,10.0,WSW,4.6,-,N/A,,Clear,240,2011-10-25 05:31:00
1:51 AM,44.6,37.4,76,30.13,10.0,West,4.6,-,N/A,,Clear,260,2011-10-25 05:51:00
2:12 AM,42.8,37.4,81,30.13,10.0,WSW,3.5,-,N/A,,Clear,250,2011-10-25 06:12:00
2:32 AM,42.8,37.4,81,30.13,10.0,Calm,Calm,-,N/A,,Clear,0,2011-10-25 06:32:00
2:52 AM,42.8,37.4,81,30.14,10.0,Calm,Calm,-,N/A,,Clear,0,2011-10-25 06:52:00
3:12 AM,42.8,37.4,81,30.14,10.0,Calm,Calm,-,N/A,,Clear,0,2011-10-25 07:12:00
3:32 AM,42.8,37.4,81,30.14,10.0,Calm,Calm,-,N/A,,Scattered Clouds,0,2011-10-25 07:32:00
3:52 AM,42.8,37.4,81,30.14,10.0,Calm,Calm,-,N/A,,Clear,0,2011-10-25 07:52:00
4:12 AM,41.0,37.4,87,30.14,10.0,Calm,Calm,-,N/A,,Clear,0,2011-10-25 08:12:00
4:33 AM,41.0,37.4,87,30.15,10.0,West,3.5,-,N/A,,Clear,270,2011-10-25 08:33:00
4:53 AM,39.2,37.4,93,30.15,10.0,Calm,Calm,-,N/A,,Clear,0,2011-10-25 08:53:00
5:13 AM,39.2,39.2,100,30.15,10.0,Calm,Calm,-,N/A,,Clear,0,2011-10-25 09:13:00
5:33 AM,39.2,39.2,100,30.15,10.0,Calm,Calm,-,N/A,,Clear,0,2011-10-25 09:33:00
5:53 AM,39.2,39.2,100,30.14,10.0,Calm,Calm,-,N/A,,Clear,0,2011-10-25 09:53:00
6:13 AM,39.2,39.2,100,30.15,10.0,Calm,Calm,-,N/A,,Clear,0,2011-10-25 10:13:00
6:33 AM,42.8,42.8,100,30.15,10.0,SW,3.5,-,N/A,,Clear,230,2011-10-25 10:33:00
6:54 AM,42.8,39.2,87,30.15,10.0,SW,3.5,-,N/A,,Clear,230,2011-10-25 10:54:00
7:14 AM,44.6,39.2,81,30.14,10.0,Calm,Calm,-,N/A,,Scattered Clouds,0,2011-10-25 11:14:00
7:34 AM,44.6,39.2,81,30.15,10.0,Calm,Calm,-,N/A,,Scattered Clouds,0,2011-10-25 11:34:00
7:54 AM,42.8,39.2,87,30.14,10.0,Calm,Calm,-,N/A,,Scattered Clouds,0,2011-10-25 11:54:00
8:14 AM,44.6,37.4,76,30.14,10.0,Calm,Calm,-,N/A,,Mostly Cloudy,0,2011-10-25 12:14:00
8:34 AM,44.6,39.2,81,30.14,10.0,Calm,Calm,-,N/A,,Overcast,0,2011-10-25 12:34:00
8:54 AM,46.4,41.0,81,30.15,10.0,Calm,Calm,-,N/A,,Overcast,0,2011-10-25 12:54:00
9:15 AM,46.4,41.0,81,30.14,10.0,Calm,Calm,-,N/A,,Overcast,0,2011-10-25 13:15:00
9:35 AM,46.4,41.0,81,30.14,10.0,Calm,Calm,-,N/A,,Overcast,0,2011-10-25 13:35:00
9:55 AM,48.2,39.2,71,30.14,10.0,South,3.5,-,N/A,,Mostly Cloudy,190,2011-10-25 13:55:00
10:10 AM,50.0,39.2,66,30.13,10.0,SSW,4.6,-,N/A,,Mostly Cloudy,210,2011-10-25 14:10:00
10:30 AM,51.8,39.2,62,30.13,10.0,South,3.5,-,N/A,,Mostly Cloudy,190,2011-10-25 14:30:00
10:50 AM,53.6,39.2,58,30.12,10.0,SSW,4.6,-,N/A,,Overcast,210,2011-10-25 14:50:00
11:11 AM,55.4,41.0,58,30.12,10.0,South,4.6,-,N/A,,Overcast,190,2011-10-25 15:11:00
11:31 AM,57.2,39.2,51,30.11,10.0,SSW,5.8,-,N/A,,Overcast,200,2011-10-25 15:31:00
11:51 AM,59.0,39.2,48,30.09,10.0,South,9.2,-,N/A,,Mostly Cloudy,190,2011-10-25 15:51:00
12:31 PM,60.8,37.4,42,30.10,10.0,Calm,Calm,-,N/A,,Overcast,0,2011-10-25 16:31:00
12:51 PM,60.8,39.2,45,30.09,10.0,South,4.6,-,N/A,,Overcast,190,2011-10-25 16:51:00
1:11 PM,60.8,39.2,45,30.07,10.0,SSE,4.6,-,N/A,,Overcast,150,2011-10-25 17:11:00
1:32 PM,60.8,39.2,45,30.05,10.0,SE,4.6,-,N/A,,Overcast,130,2011-10-25 17:32:00
1:52 PM,62.6,41.0,45,30.04,10.0,SE,5.8,-,N/A,,Overcast,140,2011-10-25 17:52:00
2:12 PM,62.6,44.6,52,30.02,10.0,ESE,8.1,-,N/A,,Mostly Cloudy,120,2011-10-25 18:12:00
2:32 PM,62.6,46.4,55,30.00,10.0,SE,8.1,-,N/A,,Scattered Clouds,130,2011-10-25 18:32:00
2:52 PM,62.6,46.4,55,29.98,10.0,ESE,6.9,-,N/A,,Clear,120,2011-10-25 18:52:00
3:12 PM,64.4,42.8,45,29.97,10.0,SE,5.8,-,N/A,,Clear,140,2011-10-25 19:12:00
3:32 PM,68.0,37.4,33,29.95,10.0,South,17.3,24.2,N/A,,Clear,190,2011-10-25 19:32:00
3:53 PM,69.8,37.4,31,29.94,10.0,SSW,13.8,17.3,N/A,,Clear,200,2011-10-25 19:53:00
4:13 PM,66.2,35.6,32,29.93,10.0,SSW,12.7,21.9,N/A,,Clear,200,2011-10-25 20:13:00
4:33 PM,66.2,37.4,35,29.92,10.0,South,13.8,-,N/A,,Clear,190,2011-10-25 20:33:00
4:53 PM,64.4,39.2,40,29.89,10.0,South,13.8,18.4,N/A,,Clear,190,2011-10-25 20:53:00
5:14 PM,64.4,39.2,40,29.90,10.0,SSW,10.4,-,N/A,,Scattered Clouds,200,2011-10-25 21:14:00
5:34 PM,64.4,39.2,40,29.88,10.0,SSW,10.4,-,N/A,,Clear,200,2011-10-25 21:34:00
6:14 PM,64.4,41.0,42,29.87,10.0,South,6.9,-,N/A,,Clear,190,2011-10-25 22:14:00
6:34 PM,62.6,39.2,42,29.87,10.0,South,8.1,-,N/A,,Scattered Clouds,190,2011-10-25 22:34:00
6:54 PM,62.6,39.2,42,29.87,10.0,South,8.1,-,N/A,,Scattered Clouds,190,2011-10-25 22:54:00
7:34 PM,62.6,42.8,48,29.88,10.0,SSW,4.6,-,N/A,,Scattered Clouds,200,2011-10-25 23:34:00
7:55 PM,60.8,42.8,52,29.88,10.0,South,3.5,-,N/A,,Scattered Clouds,170,2011-10-25 23:55:00
8:15 PM,60.8,42.8,52,29.87,10.0,Calm,Calm,-,N/A,,Scattered Clouds,0,2011-10-26 00:15:00
8:30 PM,60.8,42.8,52,29.87,10.0,Calm,Calm,-,N/A,Rain,Light Rain,0,2011-10-26 00:30:00
9:10 PM,59.0,46.4,63,29.86,10.0,SSE,4.6,-,N/A,,Mostly Cloudy,160,2011-10-26 01:10:00
9:30 PM,59.0,44.6,59,29.86,10.0,South,5.8,-,N/A,Rain,Light Rain,190,2011-10-26 01:30:00
9:51 PM,60.8,44.6,55,29.85,10.0,South,5.8,-,N/A,,Scattered Clouds,170,2011-10-26 01:51:00
10:11 PM,59.0,44.6,59,29.84,10.0,SSE,4.6,-,N/A,,Scattered Clouds,160,2011-10-26 02:11:00
10:31 PM,60.8,44.6,55,29.84,10.0,SSE,3.5,-,N/A,,Mostly Cloudy,150,2011-10-26 02:31:00
10:51 PM,59.0,44.6,59,29.83,10.0,South,4.6,-,N/A,,Overcast,170,2011-10-26 02:51:00
11:11 PM,59.0,44.6,59,29.83,10.0,South,4.6,-,N/A,,Scattered Clouds,180,2011-10-26 03:11:00
11:31 PM,57.2,46.4,67,29.84,10.0,SSW,5.8,-,N/A,Rain,Light Rain,210,2011-10-26 03:31:00